Huvudsida
METAR-TAF:

METAR-TAF

Flygplatser :

Enid, Oklahoma, USA

latitud: 36-22-45N, longitud: 097-47-28W, höjd: 356 m

Aktuellt väderrapport

Denna rapport gjordes för 21 minuter sedan, klockan 09:35 UTC
Vind 4 kt från syd/sydost
Temperatur 20°C
Fuktighet 94%
Tryck 1011 hPa
Sikt: 16.1 km
Brutna moln på en höjd av 8000 ft

METAR: KWDG 270935Z AUTO 16004KT 10SM BKN080 20/19 A2984 RMK AO2 LTG DSNT NE

Tid: 04:56 (09:56 UTC)


TAF: saknas

Aktuella väderrapporter och prognoser från 4000 flygplatser (METAR- och TAF-rapporter).

De tillgängliga stationerna syns som gula och röda prickar på kartan.

För musen över prickarna för att se namnen på stationerna.

Klicka sedan för att få väderrapporter och prognoser.

För att ändra kartan: Klicka på de gröna knapparna med ett svart kors på för att zooma in; den gröna knappen med ett streck på för att zooma ut; eller på de gröna pilarna för angränsande kartor.


METAR-TAF: